K5NCO Weather Reports


time (UTC)temp
F
wind
direction
speed
knots
gust
knots
rain 1hr
in
rain 24hr
in
rain mn
in
humidity
%
barometer
mb
20240614115705 75 178 0.0 0.0 0.00 0.00 0.00 97 1017.0
20240614115203 75 178 0.0 0.0 0.00 0.00 0.00 97 1017.1
20240614114702 75 178 0.0 0.0 0.00 0.00 0.00 97 1017.1
20240614114200 74 178 0.0 0.0 0.00 0.00 0.00 97 1017.1
20240614113700 74 178 0.0 0.0 0.00 0.00 0.00 97 1017.0
20240614113158 74 178 0.0 0.0 0.00 0.00 0.00 97 1016.9
20240614112657 74 178 0.0 0.0 0.00 0.00 0.00 96 1016.9
20240614112157 74 178 0.0 0.0 0.00 0.00 0.00 96 1017.1
20240614111655 74 178 0.0 0.0 0.00 0.00 0.00 96 1016.9
20240614111155 74 178 0.0 0.0 0.00 0.00 0.00 96 1016.6
20240614110653 74 178 0.0 0.0 0.00 0.00 0.00 96 1016.6
20240614110151 75 178 0.0 0.0 0.00 0.00 0.00 95 1016.6
20240614105650 75 178 0.0 0.0 0.00 0.00 0.00 95 1016.5
20240614105150 75 178 0.0 0.0 0.00 0.00 0.00 95 1016.4
20240614104649 75 178 0.0 0.0 0.00 0.00 0.00 94 1016.3
20240614104148 75 178 0.0 0.0 0.00 0.00 0.00 94 1016.1
20240614103647 75 178 0.0 0.0 0.00 0.00 0.00 94 1015.9
20240614103145 76 178 0.0 0.0 0.00 0.00 0.00 93 1015.9
20240614102643 76 178 0.0 0.0 0.00 0.00 0.00 93 1016.0
20240614102142 76 178 0.0 0.0 0.00 0.00 0.00 93 1015.9
20240614101640 76 178 0.0 0.0 0.00 0.00 0.00 92 1015.8
20240614101139 77 178 0.0 0.0 0.00 0.00 0.00 92 1015.8
20240614100638 77 178 0.9 0.9 0.00 0.00 0.00 92 1015.7
20240614100137 77 178 0.0 0.9 0.00 0.00 0.00 91 1015.6
20240614095637 77 178 0.0 0.0 0.00 0.00 0.00 91 1015.8
20240614095135 77 178 0.0 0.0 0.00 0.00 0.00 91 1015.8
20240614094635 77 179 0.0 0.9 0.00 0.00 0.00 91 1015.7
20240614094134 77 145 0.0 0.9 0.00 0.00 0.00 91 1015.7
20240614093633 77 207 0.0 0.0 0.00 0.00 0.00 91 1015.6
20240614093132 77 194 0.9 0.9 0.00 0.00 0.00 91 1015.6
20240614092631 77 80 0.9 0.9 0.00 0.00 0.00 91 1015.5
20240614092131 77 208 0.9 0.9 0.00 0.00 0.00 91 1015.3
20240614091630 77 205 0.9 0.9 0.00 0.00 0.00 91 1015.6
20240614091128 77 224 0.0 0.0 0.00 0.00 0.00 91 1015.5
20240614090627 77 225 0.0 0.9 0.00 0.00 0.00 91 1015.6
20240614090126 77 165 0.0 0.0 0.00 0.00 0.00 90 1015.6
20240614085624 77 166 0.0 0.0 0.00 0.00 0.00 90 1015.4
20240614085124 77 152 0.0 0.0 0.00 0.00 0.00 90 1015.4
20240614084623 77 190 1.7 1.7 0.00 0.00 0.00 89 1015.4
20240614084123 77 142 1.7 1.7 0.00 0.00 0.00 89 1015.4
20240614083622 77 164 0.9 0.9 0.00 0.00 0.00 89 1015.5
20240614083121 77 179 0.0 0.9 0.00 0.00 0.00 89 1015.4
20240614082618 77 179 0.0 0.9 0.00 0.00 0.00 89 1015.5
20240614082117 77 179 0.0 0.0 0.00 0.00 0.00 88 1015.7
20240614081612 77 185 0.0 0.0 0.00 0.00 0.00 88 1015.5
20240614081111 78 185 0.0 0.9 0.00 0.00 0.00 88 1015.4
20240614080608 78 185 0.0 0.0 0.00 0.00 0.00 87 1015.4
20240614080106 78 176 0.9 1.7 0.00 0.00 0.00 87 1015.4
20240614075604 78 180 0.9 0.9 0.00 0.00 0.00 86 1015.4
20240614075103 78 187 1.7 2.6 0.00 0.00 0.00 86 1015.5
20240614074603 78 173 2.6 2.6 0.00 0.00 0.00 86 1015.5
20240614074102 78 210 0.9 0.9 0.00 0.00 0.00 85 1015.4
20240614073559 79 203 1.7 1.7 0.00 0.00 0.00 85 1015.4
20240614073058 78 182 0.9 0.9 0.00 0.00 0.00 84 1015.5
20240614072557 78 233 0.0 0.9 0.00 0.00 0.00 84 1015.7
20240614072056 78 151 0.9 0.9 0.00 0.00 0.00 84 1015.5
20240614071556 78 151 0.9 0.9 0.00 0.00 0.00 84 1015.5
20240614071055 78 91 1.7 1.7 0.00 0.00 0.00 84 1015.7
20240614070554 78 302 0.9 0.9 0.00 0.00 0.00 84 1015.6
20240614070053 78 285 0.0 0.0 0.00 0.00 0.00 84 1015.4
20240614065552 78 266 0.0 0.0 0.00 0.00 0.00 84 1015.5
20240614065051 79 253 0.0 0.0 0.00 0.00 0.00 84 1015.5
20240614064549 79 340 0.9 0.9 0.00 0.00 0.00 83 1015.4
20240614064048 78 245 0.0 0.0 0.00 0.00 0.00 85 1015.4
20240614063548 78 342 0.0 0.0 0.00 0.00 0.00 86 1015.5
20240614063046 78 342 0.0 0.9 0.00 0.00 0.00 85 1015.8
20240614062546 78 329 0.0 0.0 0.00 0.00 0.00 85 1015.6
20240614062044 78 329 0.0 0.0 0.00 0.00 0.00 85 1015.4
20240614061543 79 329 0.0 0.0 0.00 0.00 0.00 85 1015.7
20240614061041 78 320 0.0 0.0 0.00 0.00 0.00 85 1015.7
20240614060540 78 320 0.0 0.0 0.00 0.00 0.00 85 1015.8
20240614060038 79 320 0.0 0.0 0.00 0.00 0.00 84 1015.7
20240614055538 79 320 0.0 0.0 0.00 0.00 0.00 84 1015.9
20240614055038 79 312 0.0 0.0 0.00 0.00 0.00 84 1015.8
20240614054537 79 332 0.0 0.9 0.00 0.00 0.00 84 1015.8
20240614054037 79 332 0.0 0.9 0.00 0.00 0.00 84 1015.7
20240614053536 79 344 0.0 0.0 0.00 0.00 0.00 85 1015.7
20240614053034 79 344 0.0 0.0 0.00 0.00 0.00 85 1015.7
20240614052532 79 345 0.0 0.0 0.00 0.00 0.00 86 1015.7
20240614052032 79 345 0.0 0.0 0.00 0.00 0.00 85 1015.7
20240614051531 79 345 0.0 0.0 0.00 0.00 0.00 85 1015.7
20240614051029 79 344 0.0 0.0 0.00 0.00 0.00 85 1015.8
20240614050527 79 344 0.0 0.0 0.00 0.00 0.00 85 1015.9
20240614050025 79 344 0.0 0.0 0.00 0.00 0.00 84 1016.0
20240614045520 80 344 0.0 0.0 0.00 0.00 0.00 84 1015.8
20240614045019 80 341 0.0 0.0 0.00 0.00 0.00 84 1015.9
20240614044517 80 341 0.0 0.0 0.00 0.00 0.00 83 1016.0
20240614044015 80 341 0.0 0.0 0.00 0.00 0.00 83 1015.7
20240614043514 80 341 0.0 0.0 0.00 0.00 0.00 83 1015.7
20240614043012 80 341 0.0 0.0 0.00 0.00 0.00 83 1015.8
20240614042509 80 340 0.0 0.0 0.00 0.00 0.00 83 1015.8
20240614042009 80 340 0.0 0.0 0.00 0.00 0.00 83 1015.6
20240614041507 80 340 0.0 0.9 0.00 0.00 0.00 82 1015.7
20240614041007 80 339 0.0 0.0 0.00 0.00 0.00 81 1015.9
20240614040506 81 339 0.0 0.0 0.00 0.00 0.00 80 1015.8
20240614040005 81 339 0.0 0.0 0.00 0.00 0.00 79 1015.7
20240614035503 81 339 0.0 0.0 0.00 0.00 0.00 79 1015.6
20240614035003 81 339 0.0 0.0 0.00 0.00 0.00 78 1015.6
20240614034501 81 339 0.0 0.0 0.00 0.00 0.00 77 1015.5
20240614034001 81 340 0.0 0.0 0.00 0.00 0.00 77 1015.6
20240614033500 81 333 0.0 0.0 0.00 0.00 0.00 77 1015.4
20240614032956 82 333 0.0 0.0 0.00 0.00 0.00 77 1015.5
20240614032454 82 333 0.0 0.0 0.00 0.00 0.00 76 1015.3
20240614031954 82 333 0.0 0.0 0.00 0.00 0.00 76 1015.4
20240614031453 82 333 0.0 0.0 0.00 0.00 0.00 76 1015.1
20240614030951 82 271 0.0 0.0 0.00 0.00 0.00 75 1015.0
20240614030449 82 332 0.0 0.0 0.00 0.00 0.00 75 1014.8
20240614025947 82 332 0.0 0.0 0.00 0.00 0.00 75 1014.8
20240614025446 83 332 0.0 0.0 0.00 0.00 0.00 74 1015.1
20240614024945 83 332 0.0 0.0 0.00 0.00 0.00 73 1015.0
20240614024443 84 332 0.0 0.0 0.00 0.00 0.00 72 1014.7
20240614023942 84 265 0.0 0.0 0.00 0.00 0.00 71 1014.9
20240614023441 84 144 0.9 1.7 0.00 0.00 0.00 71 1014.5
20240614022940 84 5 0.0 0.0 0.00 0.00 0.00 72 1014.4
20240614022439 84 264 0.0 0.0 0.00 0.00 0.00 71 1014.4
20240614021938 84 319 0.0 0.0 0.00 0.00 0.00 71 1014.4
20240614021436 84 249 0.0 0.9 0.00 0.00 0.00 70 1014.7
20240614020934 85 158 0.0 0.0 0.00 0.00 0.00 70 1014.5
20240614020433 85 210 0.0 0.0 0.00 0.00 0.00 70 1014.6
20240614015930 85 6 0.0 0.0 0.00 0.00 0.00 69 1014.6
20240614015429 85 10 0.9 0.9 0.00 0.00 0.00 69 1014.4
20240614014928 86 307 0.0 0.0 0.00 0.00 0.00 68 1014.3
20240614014428 86 266 0.0 0.9 0.00 0.00 0.00 67 1014.4
20240614013927 86 60 0.0 0.9 0.00 0.00 0.00 67 1014.4
20240614013427 86 250 0.0 0.0 0.00 0.00 0.00 66 1014.4
20240614012925 86 137 0.0 0.9 0.00 0.00 0.00 66 1014.3
20240614012425 87 263 0.0 0.9 0.00 0.00 0.00 65 1014.5
20240614011923 87 53 1.7 1.7 0.00 0.00 0.00 65 1014.3
20240614011420 87 51 0.9 2.6 0.00 0.00 0.00 63 1014.3
20240614010920 88 311 0.0 0.0 0.00 0.00 0.00 62 1014.4
20240614010418 88 9 0.9 0.9 0.00 0.00 0.00 61 1014.3
20240614005915 89 123 0.9 1.7 0.00 0.00 0.00 61 1014.4
20240614005413 89 267 0.9 1.7 0.00 0.00 0.00 60 1014.4
20240614004912 89 41 1.7 3.5 0.00 0.00 0.00 59 1014.2
20240614004410 89 185 0.9 1.7 0.00 0.00 0.00 59 1014.2
20240614003908 89 204 0.9 0.9 0.00 0.00 0.00 59 1014.2
20240614003408 90 282 1.7 1.7 0.00 0.00 0.00 58 1014.3
20240614002906 90 210 0.0 0.0 0.00 0.00 0.00 59 1014.3
20240614002405 90 342 0.9 0.9 0.00 0.00 0.00 57 1014.2
20240614001904 91 12 0.9 1.7 0.00 0.00 0.00 56 1014.2
20240614001402 91 346 1.7 1.7 0.00 0.00 0.00 55 1014.5
20240614000902 90 63 1.7 2.6 0.00 0.00 0.00 56 1014.4
20240614000400 92 130 0.9 1.7 0.00 0.00 0.00 57 1014.4
20240613235859 92 211 0.9 1.7 0.00 0.00 0.00 54 1014.3
20240613235359 94 52 1.7 1.7 0.00 0.00 0.00 51 1014.3
20240613234858 93 316 0.0 0.9 0.00 0.00 0.00 51 1014.5
20240613234355 92 310 0.0 0.9 0.00 0.00 0.00 53 1014.2
20240613233853 93 85 2.6 3.5 0.00 0.00 0.00 54 1014.4
20240613233351 93 314 0.9 1.7 0.00 0.00 0.00 52 1014.5
20240613232848 93 324 0.0 0.0 0.00 0.00 0.00 54 1014.6
20240613232347 93 239 0.9 0.9 0.00 0.00 0.00 54 1014.3
20240613231345 93 310 1.7 2.6 0.00 0.00 0.00 53 1014.2
20240613230844 94 299 0.9 1.7 0.00 0.00 0.00 51 1014.4
20240613230342 95 285 0.9 0.9 0.00 0.00 0.00 51 1014.5
20240613225839 94 305 0.9 0.9 0.00 0.00 0.00 53 1014.3
20240613225338 93 306 0.9 0.9 0.00 0.00 0.00 56 1014.4
20240613224833 94 303 0.9 0.9 0.00 0.00 0.00 53 1014.6
20240613224326 95 296 0.9 1.7 0.00 0.00 0.00 50 1014.4
20240613223826 95 313 0.9 1.7 0.00 0.00 0.00 50 1014.6
20240613223327 93 133 0.9 0.9 0.00 0.00 0.00 54 1014.4
20240613222826 94 205 1.7 1.7 0.00 0.00 0.00 53 1014.6
20240613222325 94 303 0.9 0.9 0.00 0.00 0.00 52 1014.5
20240613221823 94 222 0.9 1.7 0.00 0.00 0.00 54 1014.7
20240613221322 92 18 1.7 2.6 0.00 0.00 0.00 55 1014.7
20240613220820 91 77 2.6 5.2 0.00 0.00 0.00 56 1014.7
20240613220318 92 152 3.5 6.1 0.00 0.00 0.00 54 1014.9
20240613215818 93 51 0.9 2.6 0.00 0.00 0.00 54 1014.7
20240613215315 93 279 0.9 1.7 0.00 0.00 0.00 56 1014.6
20240613214815 95 355 1.7 2.6 0.00 0.00 0.00 53 1014.9
20240613214314 96 308 0.9 0.9 0.00 0.00 0.00 48 1014.7
20240613213812 95 7 0.9 1.7 0.00 0.00 0.00 52 1014.8
20240613213311 93 258 0.0 0.9 0.00 0.00 0.00 54 1015.0
20240613212811 93 3 0.9 0.9 0.00 0.00 0.00 55 1015.0
20240613212309 94 125 0.9 0.9 0.00 0.00 0.00 54 1015.0
20240613211807 92 344 0.9 0.9 0.00 0.00 0.00 56 1014.9
20240613211307 92 40 0.9 1.7 0.00 0.00 0.00 56 1015.0
20240613210806 95 201 1.7 1.7 0.00 0.00 0.00 53 1015.0
20240613210304 93 196 1.7 2.6 0.00 0.00 0.00 56 1015.2
20240613205803 97 296 1.7 2.6 0.00 0.00 0.00 48 1015.3
20240613205301 97 95 0.0 0.9 0.00 0.00 0.00 49 1015.3
20240613204759 96 303 0.9 0.9 0.00 0.00 0.00 49 1015.4
20240613204258 93 103 2.6 2.6 0.00 0.00 0.00 53 1015.5
20240613203759 95 175 3.5 5.2 0.00 0.00 0.00 52 1015.3
20240613203257 93 282 1.7 1.7 0.00 0.00 0.00 52 1015.3
20240613202755 93 111 1.7 3.5 0.00 0.00 0.00 56 1015.5
20240613202254 93 178 3.5 6.1 0.00 0.00 0.00 53 1015.5
20240613201753 94 291 0.9 0.9 0.00 0.00 0.00 52 1015.7
20240613201253 95 231 1.7 1.7 0.00 0.00 0.00 49 1015.6
20240613200751 94 211 0.0 0.0 0.00 0.00 0.00 52 1015.7
20240613200249 93 150 0.9 0.9 0.00 0.00 0.00 52 1015.8
20240613195747 93 182 0.9 0.9 0.00 0.00 0.00 54 1015.8
20240613195245 93 328 0.9 0.9 0.00 0.00 0.00 55 1015.7
20240613194744 94 299 1.7 1.7 0.00 0.00 0.00 56 1016.0
20240613194242 93 254 1.7 1.7 0.00 0.00 0.00 53 1015.7
20240613193741 94 179 0.9 1.7 0.00 0.00 0.00 55 1015.8
20240613193239 91 206 1.7 2.6 0.00 0.00 0.00 58 1015.9
20240613192737 90 138 1.7 2.6 0.00 0.00 0.00 57 1016.0
20240613192236 91 8 1.7 2.6 0.00 0.00 0.00 56 1016.0
20240613191735 92 167 2.6 3.5 0.00 0.00 0.00 59 1016.0
20240613191233 91 316 0.0 0.9 0.00 0.00 0.00 58 1016.1
20240613190733 92 139 1.7 1.7 0.00 0.00 0.00 55 1016.0
20240613190233 92 41 1.7 2.6 0.00 0.00 0.00 55 1016.0
20240613185732 93 208 0.9 0.9 0.00 0.00 0.00 56 1016.2
20240613185232 95 328 0.0 0.9 0.00 0.00 0.00 50 1016.3
20240613184731 93 238 0.9 1.7 0.00 0.00 0.00 52 1016.5
20240613184230 95 302 0.9 1.7 0.00 0.00 0.00 53 1016.4
20240613183728 94 211 2.6 2.6 0.00 0.00 0.00 53 1016.4
20240613183227 94 317 0.9 2.6 0.00 0.00 0.00 52 1016.4
20240613182726 92 95 0.0 0.9 0.00 0.00 0.00 55 1016.5
20240613182225 94 127 4.3 6.1 0.00 0.00 0.00 56 1016.6
20240613181723 93 326 0.0 0.0 0.00 0.00 0.00 53 1016.6
20240613181222 91 244 0.0 0.9 0.00 0.00 0.00 54 1016.6
20240613180721 92 126 1.7 2.6 0.00 0.00 0.00 55 1016.8
20240613180221 93 238 1.7 1.7 0.00 0.00 0.00 57 1016.8
20240613175719 91 275 0.0 0.0 0.00 0.00 0.00 54 1016.9
20240613175219 93 38 1.7 2.6 0.00 0.00 0.00 53 1016.9
20240613174717 92 249 0.9 0.9 0.00 0.00 0.00 57 1017.0
20240613174215 90 161 1.7 1.7 0.00 0.00 0.00 58 1017.1
20240613173715 90 154 3.5 3.5 0.00 0.00 0.00 61 1016.9
20240613173214 89 120 0.9 1.7 0.00 0.00 0.00 64 1017.0
20240613172712 92 126 1.7 1.7 0.00 0.00 0.00 56 1017.1
20240613172212 90 284 0.0 0.0 0.00 0.00 0.00 59 1017.0
20240613171710 88 341 0.0 0.9 0.00 0.00 0.00 64 1017.1
20240613171209 90 134 0.9 1.7 0.00 0.00 0.00 64 1017.1
20240613170707 89 92 2.6 2.6 0.00 0.00 0.00 64 1017.0
20240613170206 88 119 2.6 3.5 0.00 0.00 0.00 64 1017.2
20240613165705 88 183 1.7 1.7 0.00 0.00 0.00 67 1017.0
20240613165203 87 148 0.0 0.0 0.00 0.00 0.00 68 1017.1
20240613164703 88 119 3.5 3.5 0.00 0.00 0.00 66 1016.9
20240613164201 89 291 0.0 0.0 0.00 0.00 0.00 64 1017.0
20240613163659 87 167 1.7 1.7 0.00 0.00 0.00 66 1017.1
20240613163157 87 270 0.9 0.9 0.00 0.00 0.00 69 1017.1
20240613162655 88 76 1.7 2.6 0.00 0.00 0.00 66 1017.2
20240613162153 90 154 1.7 1.7 0.00 0.00 0.00 64 1017.0
20240613161653 88 278 0.9 0.9 0.00 0.00 0.00 65 1017.1
20240613161152 89 170 1.7 2.6 0.00 0.00 0.00 66 1017.0
20240613160651 87 140 0.9 1.7 0.00 0.00 0.00 68 1017.0
20240613160149 87 251 0.9 0.9 0.00 0.00 0.00 68 1017.2
20240613155649 87 293 1.7 1.7 0.00 0.00 0.00 67 1017.2
20240613155147 88 190 3.5 3.5 0.00 0.00 0.00 67 1016.9
20240613154646 87 310 0.0 0.0 0.00 0.00 0.00 67 1017.1
20240613154145 85 136 0.9 1.7 0.00 0.00 0.00 71 1017.0
20240613153643 86 197 1.7 1.7 0.00 0.00 0.00 70 1017.2
20240613153142 85 133 1.7 1.7 0.00 0.00 0.00 72 1017.1
20240613152640 86 126 2.6 3.5 0.00 0.00 0.00 71 1017.2
20240613152140 85 86 0.9 1.7 0.00 0.00 0.00 73 1017.0
20240613151638 86 21 1.7 1.7 0.00 0.00 0.00 71 1017.1
20240613151137 84 303 0.9 0.9 0.00 0.00 0.00 75 1017.3
20240613150636 84 183 3.5 3.5 0.00 0.00 0.00 74 1017.2
20240613150137 83 168 0.9 1.7 0.00 0.00 0.00 78 1017.1
20240613145635 83 224 0.9 0.9 0.00 0.00 0.00 79 1017.3
20240613145133 84 2 1.7 1.7 0.00 0.00 0.00 75 1017.2
20240613144633 84 103 0.9 1.7 0.00 0.00 0.00 76 1017.3
20240613144132 84 222 1.7 2.6 0.00 0.00 0.00 76 1017.0
20240613143631 83 92 2.6 2.6 0.00 0.00 0.00 77 1017.4
20240613143130 83 20 1.7 1.7 0.00 0.00 0.00 78 1017.2
20240613142629 82 244 0.0 0.9 0.00 0.00 0.00 80 1017.3
20240613142127 80 141 1.7 1.7 0.00 0.00 0.00 83 1017.3
20240613141627 81 199 0.9 2.6 0.00 0.00 0.00 84 1017.1
20240613141126 81 224 0.0 0.9 0.00 0.00 0.00 83 1017.1
20240613140624 82 55 2.6 2.6 0.00 0.00 0.00 81 1016.8
20240613140122 82 217 0.0 0.0 0.00 0.00 0.00 82 1017.0
20240613135621 81 185 0.9 0.9 0.00 0.00 0.00 84 1017.0
20240613135120 81 204 0.0 0.9 0.00 0.00 0.00 84 1016.9
20240613134618 82 159 1.7 1.7 0.00 0.00 0.00 82 1016.9
20240613134118 83 223 0.0 0.0 0.00 0.00 0.00 82 1016.9
20240613133617 82 223 0.9 0.9 0.00 0.00 0.00 83 1016.8
20240613133115 81 228 0.0 0.0 0.00 0.00 0.00 83 1016.8
20240613132615 81 241 0.0 0.9 0.00 0.00 0.00 86 1016.7
20240613132114 80 241 0.0 0.0 0.00 0.00 0.00 89 1016.8
20240613131614 79 241 0.0 0.0 0.00 0.00 0.00 92 1016.5
20240613131112 78 241 0.0 0.0 0.00 0.00 0.00 94 1016.7
20240613130611 77 241 0.0 0.0 0.00 0.00 0.00 96 1016.5
20240613130109 77 241 0.0 0.0 0.00 0.00 0.00 97 1016.9
20240613125608 76 242 0.0 0.0 0.00 0.00 0.00 97 1016.5
20240613125107 76 242 0.0 0.0 0.00 0.00 0.00 98 1016.5
20240613124606 75 242 0.0 0.0 0.00 0.00 0.00 98 1016.3
20240613124104 75 242 0.0 0.0 0.00 0.00 0.00 98 1016.3
20240613123602 75 242 0.0 0.0 0.00 0.00 0.00 99 1016.1
20240613123102 75 241 0.0 0.0 0.00 0.00 0.00 99 1016.1
20240613122601 74 241 0.0 0.0 0.00 0.00 0.00 99 1016.0
20240613122100 74 242 0.0 0.0 0.00 0.00 0.00 99 1016.0
20240613121557 74 241 0.0 0.0 0.00 0.00 0.00 99 1015.8
20240613121056 74 242 0.0 0.0 0.00 0.00 0.00 99 1015.9
20240613120554 73 242 0.0 0.0 0.00 0.00 0.00 99 1015.8
20240613120053 73 241 0.0 0.0 0.00 0.00 0.00 99 1015.9